sensor_id;sensor_type;location;lat;lon;timestamp;pressure;altitude;pressure_sealevel;temperature;humidity
50434;BME280;36361;38.954;-9.002;2023-03-15T00:00:55;101237.25;;;14.97;100.00
50434;BME280;36361;38.954;-9.002;2023-03-15T00:01:55;101231.28;;;15.19;100.00
50434;BME280;36361;38.954;-9.002;2023-03-15T00:02:56;101236.97;;;15.17;100.00
50434;BME280;36361;38.954;-9.002;2023-03-15T00:03:57;101230.34;;;15.25;100.00
50434;BME280;36361;38.954;-9.002;2023-03-15T00:04:58;101230.66;;;15.47;100.00
50434;BME280;36361;38.954;-9.002;2023-03-15T00:05:59;101226.66;;;15.61;100.00
50434;BME280;36361;38.954;-9.002;2023-03-15T00:07:00;101227.69;;;15.48;100.00
50434;BME280;36361;38.954;-9.002;2023-03-15T00:08:01;101223.50;;;15.46;100.00
50434;BME280;36361;38.954;-9.002;2023-03-15T00:09:02;101221.56;;;15.64;100.00
50434;BME280;36361;38.954;-9.002;2023-03-15T00:10:03;101223.50;;;15.87;100.00
50434;BME280;36361;38.954;-9.002;2023-03-15T00:11:05;101230.00;;;15.63;100.00
50434;BME280;36361;38.954;-9.002;2023-03-15T00:12:06;101219.66;;;15.77;100.00
50434;BME280;36361;38.954;-9.002;2023-03-15T00:13:08;101210.59;;;15.64;100.00
50434;BME280;36361;38.954;-9.002;2023-03-15T00:14:12;101218.97;;;15.93;100.00
50434;BME280;36361;38.954;-9.002;2023-03-15T00:15:13;101219.72;;;15.58;100.00
50434;BME280;36361;38.954;-9.002;2023-03-15T00:16:14;101225.38;;;15.63;100.00
50434;BME280;36361;38.954;-9.002;2023-03-15T00:17:17;101225.88;;;15.42;100.00
50434;BME280;36361;38.954;-9.002;2023-03-15T00:18:18;101220.88;;;15.39;100.00
50434;BME280;36361;38.954;-9.002;2023-03-15T00:19:20;101216.34;;;14.85;100.00
50434;BME280;36361;38.954;-9.002;2023-03-15T00:20:20;101215.31;;;14.97;100.00
50434;BME280;36361;38.954;-9.002;2023-03-15T00:21:21;101220.41;;;14.64;100.00
50434;BME280;36361;38.954;-9.002;2023-03-15T00:22:22;101217.03;;;14.62;100.00
50434;BME280;36361;38.954;-9.002;2023-03-15T00:23:23;101210.91;;;14.48;100.00
50434;BME280;36361;38.954;-9.002;2023-03-15T00:24:24;101208.91;;;14.73;100.00
50434;BME280;36361;38.954;-9.002;2023-03-15T00:25:24;101209.47;;;14.64;100.00
50434;BME280;36361;38.954;-9.002;2023-03-15T00:26:25;101206.72;;;14.02;100.00
50434;BME280;36361;38.954;-9.002;2023-03-15T00:27:26;101212.59;;;14.42;100.00
50434;BME280;36361;38.954;-9.002;2023-03-15T00:28:27;101212.69;;;14.36;100.00
50434;BME280;36361;38.954;-9.002;2023-03-15T00:29:28;101202.75;;;14.60;100.00
50434;BME280;36361;38.954;-9.002;2023-03-15T00:30:28;101200.78;;;14.67;100.00
50434;BME280;36361;38.954;-9.002;2023-03-15T00:31:29;101205.88;;;14.82;100.00
50434;BME280;36361;38.954;-9.002;2023-03-15T00:32:30;101200.75;;;14.85;100.00
50434;BME280;36361;38.954;-9.002;2023-03-15T00:33:31;101199.34;;;14.94;100.00
50434;BME280;36361;38.954;-9.002;2023-03-15T00:34:34;101204.00;;;15.24;100.00
50434;BME280;36361;38.954;-9.002;2023-03-15T00:35:41;101200.63;;;15.10;100.00
50434;BME280;36361;38.954;-9.002;2023-03-15T00:36:45;101199.53;;;14.81;100.00
50434;BME280;36361;38.954;-9.002;2023-03-15T00:37:46;101194.22;;;14.49;100.00
50434;BME280;36361;38.954;-9.002;2023-03-15T00:38:47;101197.50;;;15.06;100.00
50434;BME280;36361;38.954;-9.002;2023-03-15T00:39:48;101196.25;;;14.91;100.00
50434;BME280;36361;38.954;-9.002;2023-03-15T00:40:48;101190.38;;;14.87;100.00
50434;BME280;36361;38.954;-9.002;2023-03-15T00:41:50;101199.84;;;14.91;100.00
50434;BME280;36361;38.954;-9.002;2023-03-15T00:42:51;101191.31;;;14.63;100.00
50434;BME280;36361;38.954;-9.002;2023-03-15T00:43:52;101186.53;;;14.76;100.00
50434;BME280;36361;38.954;-9.002;2023-03-15T00:44:53;101189.94;;;14.72;100.00
50434;BME280;36361;38.954;-9.002;2023-03-15T00:45:56;101197.66;;;14.63;100.00
50434;BME280;36361;38.954;-9.002;2023-03-15T00:46:57;101188.28;;;14.52;100.00
50434;BME280;36361;38.954;-9.002;2023-03-15T00:47:58;101196.41;;;14.22;100.00
50434;BME280;36361;38.954;-9.002;2023-03-15T00:48:58;101191.94;;;14.28;100.00
50434;BME280;36361;38.954;-9.002;2023-03-15T00:50:00;101191.94;;;14.28;100.00
50434;BME280;36361;38.954;-9.002;2023-03-15T00:51:12;101180.81;;;14.23;100.00
50434;BME280;36361;38.954;-9.002;2023-03-15T00:52:13;101186.56;;;14.15;100.00
50434;BME280;36361;38.954;-9.002;2023-03-15T00:53:13;101190.59;;;14.12;100.00
50434;BME280;36361;38.954;-9.002;2023-03-15T00:54:15;101182.13;;;13.95;100.00
50434;BME280;36361;38.954;-9.002;2023-03-15T00:55:18;101179.69;;;13.87;100.00
50434;BME280;36361;38.954;-9.002;2023-03-15T00:56:21;101178.47;;;13.83;100.00
50434;BME280;36361;38.954;-9.002;2023-03-15T00:57:22;101179.88;;;13.92;100.00
50434;BME280;36361;38.954;-9.002;2023-03-15T00:58:23;101183.84;;;13.72;100.00
50434;BME280;36361;38.954;-9.002;2023-03-15T00:59:24;101181.66;;;13.55;100.00
50434;BME280;36361;38.954;-9.002;2023-03-15T01:00:25;101178.47;;;13.58;100.00
50434;BME280;36361;38.954;-9.002;2023-03-15T01:01:30;101177.19;;;13.61;100.00
50434;BME280;36361;38.954;-9.002;2023-03-15T01:02:31;101174.38;;;13.43;100.00
50434;BME280;36361;38.954;-9.002;2023-03-15T01:03:31;101177.56;;;13.40;100.00
50434;BME280;36361;38.954;-9.002;2023-03-15T01:04:33;101169.72;;;13.50;100.00
50434;BME280;36361;38.954;-9.002;2023-03-15T01:05:35;101175.44;;;13.10;100.00
50434;BME280;36361;38.954;-9.002;2023-03-15T01:06:35;101171.28;;;13.01;100.00
50434;BME280;36361;38.954;-9.002;2023-03-15T01:07:36;101179.16;;;13.16;100.00
50434;BME280;36361;38.954;-9.002;2023-03-15T01:08:38;101174.59;;;13.09;100.00
50434;BME280;36361;38.954;-9.002;2023-03-15T01:09:39;101173.41;;;12.99;100.00
50434;BME280;36361;38.954;-9.002;2023-03-15T01:10:41;101169.88;;;12.92;100.00
50434;BME280;36361;38.954;-9.002;2023-03-15T01:11:42;101168.31;;;13.09;100.00
50434;BME280;36361;38.954;-9.002;2023-03-15T01:12:44;101175.44;;;13.10;100.00
50434;BME280;36361;38.954;-9.002;2023-03-15T01:13:45;101165.84;;;13.01;100.00
50434;BME280;36361;38.954;-9.002;2023-03-15T01:14:45;101164.63;;;12.90;100.00
50434;BME280;36361;38.954;-9.002;2023-03-15T01:15:46;101165.72;;;12.82;100.00
50434;BME280;36361;38.954;-9.002;2023-03-15T01:16:47;101162.09;;;12.89;100.00
50434;BME280;36361;38.954;-9.002;2023-03-15T01:17:48;101163.97;;;12.95;100.00
50434;BME280;36361;38.954;-9.002;2023-03-15T01:18:49;101162.16;;;12.82;100.00
50434;BME280;36361;38.954;-9.002;2023-03-15T01:19:51;101159.47;;;12.69;100.00
50434;BME280;36361;38.954;-9.002;2023-03-15T01:20:55;101162.63;;;12.72;100.00
50434;BME280;36361;38.954;-9.002;2023-03-15T01:21:56;101156.28;;;12.78;100.00
50434;BME280;36361;38.954;-9.002;2023-03-15T01:22:56;101159.19;;;12.84;100.00
50434;BME280;36361;38.954;-9.002;2023-03-15T01:23:57;101166.31;;;12.91;100.00
50434;BME280;36361;38.954;-9.002;2023-03-15T01:24:58;101159.56;;;12.94;100.00
50434;BME280;36361;38.954;-9.002;2023-03-15T01:26:00;101158.63;;;12.75;100.00
50434;BME280;36361;38.954;-9.002;2023-03-15T01:27:01;101162.19;;;12.75;100.00
50434;BME280;36361;38.954;-9.002;2023-03-15T01:28:02;101154.97;;;12.88;100.00
50434;BME280;36361;38.954;-9.002;2023-03-15T01:29:02;101154.53;;;12.91;100.00
50434;BME280;36361;38.954;-9.002;2023-03-15T01:30:04;101156.34;;;12.72;100.00
50434;BME280;36361;38.954;-9.002;2023-03-15T01:31:30;101147.84;;;12.80;100.00
50434;BME280;36361;38.954;-9.002;2023-03-15T01:32:30;101156.69;;;12.82;100.00
50434;BME280;36361;38.954;-9.002;2023-03-15T01:33:30;101157.34;;;12.77;100.00
50434;BME280;36361;38.954;-9.002;2023-03-15T01:34:31;101147.00;;;12.86;100.00
50434;BME280;36361;38.954;-9.002;2023-03-15T01:35:32;101155.84;;;12.81;100.00
50434;BME280;36361;38.954;-9.002;2023-03-15T01:36:33;101146.28;;;12.59;100.00
50434;BME280;36361;38.954;-9.002;2023-03-15T01:37:33;101153.16;;;12.75;100.00
50434;BME280;36361;38.954;-9.002;2023-03-15T01:38:34;101154.19;;;12.80;100.00
50434;BME280;36361;38.954;-9.002;2023-03-15T01:39:35;101150.66;;;12.73;100.00
50434;BME280;36361;38.954;-9.002;2023-03-15T01:40:43;101146.66;;;12.69;100.00
50434;BME280;36361;38.954;-9.002;2023-03-15T01:41:45;101144.28;;;12.79;100.00
50434;BME280;36361;38.954;-9.002;2023-03-15T01:44:15;101146.50;;;12.96;100.00
50434;BME280;36361;38.954;-9.002;2023-03-15T01:46:56;101151.59;;;12.54;100.00
50434;BME280;36361;38.954;-9.002;2023-03-15T01:47:57;101146.16;;;12.41;100.00
50434;BME280;36361;38.954;-9.002;2023-03-15T01:49:08;101151.91;;;12.26;100.00
50434;BME280;36361;38.954;-9.002;2023-03-15T01:50:15;101142.19;;;12.37;100.00
50434;BME280;36361;38.954;-9.002;2023-03-15T01:51:20;101144.63;;;12.58;100.00
50434;BME280;36361;38.954;-9.002;2023-03-15T01:52:25;101143.38;;;12.54;100.00
50434;BME280;36361;38.954;-9.002;2023-03-15T01:53:33;101142.19;;;12.37;100.00
50434;BME280;36361;38.954;-9.002;2023-03-15T01:55:00;101150.19;;;12.32;100.00
50434;BME280;36361;38.954;-9.002;2023-03-15T01:56:05;101137.00;;;12.22;100.00
50434;BME280;36361;38.954;-9.002;2023-03-15T01:57:16;101138.03;;;12.28;100.00
50434;BME280;36361;38.954;-9.002;2023-03-15T01:58:20;101140.69;;;12.47;100.00
50434;BME280;36361;38.954;-9.002;2023-03-15T01:59:28;101145.47;;;12.52;100.00
50434;BME280;36361;38.954;-9.002;2023-03-15T02:00:31;101142.13;;;12.50;100.00
50434;BME280;36361;38.954;-9.002;2023-03-15T02:01:42;101134.00;;;12.37;100.00
50434;BME280;36361;38.954;-9.002;2023-03-15T02:03:00;101142.97;;;12.50;100.00
50434;BME280;36361;38.954;-9.002;2023-03-15T02:04:08;101137.56;;;12.44;100.00
50434;BME280;36361;38.954;-9.002;2023-03-15T02:05:21;101136.66;;;12.50;100.00
50434;BME280;36361;38.954;-9.002;2023-03-15T02:06:24;101139.94;;;12.20;100.00
50434;BME280;36361;38.954;-9.002;2023-03-15T02:07:29;101145.16;;;12.35;100.00
50434;BME280;36361;38.954;-9.002;2023-03-15T02:08:38;101147.22;;;12.33;100.00
50434;BME280;36361;38.954;-9.002;2023-03-15T02:09:43;101138.94;;;12.02;100.00
50434;BME280;36361;38.954;-9.002;2023-03-15T02:10:50;101140.00;;;11.94;100.00
50434;BME280;36361;38.954;-9.002;2023-03-15T02:11:54;101140.22;;;11.92;100.00
50434;BME280;36361;38.954;-9.002;2023-03-15T02:12:57;101139.78;;;12.09;100.00
50434;BME280;36361;38.954;-9.002;2023-03-15T02:13:59;101143.50;;;12.21;100.00
50434;BME280;36361;38.954;-9.002;2023-03-15T02:15:04;101137.66;;;12.04;100.00
50434;BME280;36361;38.954;-9.002;2023-03-15T02:16:09;101149.03;;;12.01;100.00
50434;BME280;36361;38.954;-9.002;2023-03-15T02:17:18;101148.13;;;12.14;100.00
50434;BME280;36361;38.954;-9.002;2023-03-15T02:18:22;101148.56;;;12.17;100.00
50434;BME280;36361;38.954;-9.002;2023-03-15T02:22:34;101142.22;;;12.23;100.00
50434;BME280;36361;38.954;-9.002;2023-03-15T02:23:40;101137.16;;;12.34;100.00
50434;BME280;36361;38.954;-9.002;2023-03-15T02:25:05;101139.72;;;12.15;100.00
50434;BME280;36361;38.954;-9.002;2023-03-15T02:27:24;101143.16;;;11.84;100.00
50434;BME280;36361;38.954;-9.002;2023-03-15T02:28:26;101128.91;;;11.89;100.00
50434;BME280;36361;38.954;-9.002;2023-03-15T02:29:28;101126.38;;;11.94;100.00
50434;BME280;36361;38.954;-9.002;2023-03-15T02:30:29;101125.13;;;11.90;100.00
50434;BME280;36361;38.954;-9.002;2023-03-15T02:31:31;101119.69;;;11.90;100.00
50434;BME280;36361;38.954;-9.002;2023-03-15T02:32:37;101118.34;;;12.12;100.00
50434;BME280;36361;38.954;-9.002;2023-03-15T02:33:46;101120.00;;;12.27;100.00
50434;BME280;36361;38.954;-9.002;2023-03-15T02:34:48;101118.31;;;12.26;100.00
50434;BME280;36361;38.954;-9.002;2023-03-15T02:35:49;101117.44;;;12.32;100.00
50434;BME280;36361;38.954;-9.002;2023-03-15T02:36:51;101119.09;;;12.39;100.00
50434;BME280;36361;38.954;-9.002;2023-03-15T02:37:53;101123.09;;;12.81;100.00
50434;BME280;36361;38.954;-9.002;2023-03-15T02:38:55;101122.53;;;12.98;100.00
50434;BME280;36361;38.954;-9.002;2023-03-15T02:39:56;101107.19;;;12.97;100.00
50434;BME280;36361;38.954;-9.002;2023-03-15T02:40:57;101110.78;;;13.29;100.00
50434;BME280;36361;38.954;-9.002;2023-03-15T02:41:58;101110.84;;;13.47;100.00
50434;BME280;36361;38.954;-9.002;2023-03-15T02:43:09;101110.66;;;13.67;100.00
50434;BME280;36361;38.954;-9.002;2023-03-15T02:45:19;101102.72;;;14.02;100.00
50434;BME280;36361;38.954;-9.002;2023-03-15T02:46:21;101104.91;;;13.93;100.00
50434;BME280;36361;38.954;-9.002;2023-03-15T02:47:29;101104.63;;;13.83;100.00
50434;BME280;36361;38.954;-9.002;2023-03-15T02:48:33;101103.19;;;13.81;100.00
50434;BME280;36361;38.954;-9.002;2023-03-15T02:49:38;101098.88;;;13.66;100.00
50434;BME280;36361;38.954;-9.002;2023-03-15T02:50:41;101099.34;;;13.63;100.00
50434;BME280;36361;38.954;-9.002;2023-03-15T02:51:42;101089.88;;;13.84;100.00
50434;BME280;36361;38.954;-9.002;2023-03-15T02:52:43;101096.84;;;13.99;100.00
50434;BME280;36361;38.954;-9.002;2023-03-15T02:53:44;101096.22;;;13.78;100.00
50434;BME280;36361;38.954;-9.002;2023-03-15T02:54:45;101100.22;;;14.01;100.00
50434;BME280;36361;38.954;-9.002;2023-03-15T02:55:46;101088.19;;;14.02;100.00
50434;BME280;36361;38.954;-9.002;2023-03-15T02:56:46;101083.16;;;13.80;100.00
50434;BME280;36361;38.954;-9.002;2023-03-15T02:57:48;101076.94;;;13.73;100.00
50434;BME280;36361;38.954;-9.002;2023-03-15T02:58:49;101079.06;;;13.89;100.00
50434;BME280;36361;38.954;-9.002;2023-03-15T02:59:50;101076.00;;;13.61;100.00
50434;BME280;36361;38.954;-9.002;2023-03-15T03:00:52;101080.41;;;13.62;100.00
50434;BME280;36361;38.954;-9.002;2023-03-15T03:01:55;101073.03;;;13.44;100.00
50434;BME280;36361;38.954;-9.002;2023-03-15T03:02:56;101077.75;;;13.55;100.00
50434;BME280;36361;38.954;-9.002;2023-03-15T03:03:57;101081.19;;;13.26;100.00
50434;BME280;36361;38.954;-9.002;2023-03-15T03:04:58;101068.41;;;13.13;100.00
50434;BME280;36361;38.954;-9.002;2023-03-15T03:05:59;101070.47;;;12.93;100.00
50434;BME280;36361;38.954;-9.002;2023-03-15T03:07:00;101067.19;;;12.77;100.00
50434;BME280;36361;38.954;-9.002;2023-03-15T03:08:10;101065.94;;;12.42;100.00
50434;BME280;36361;38.954;-9.002;2023-03-15T03:09:11;101063.28;;;12.29;100.00
50434;BME280;36361;38.954;-9.002;2023-03-15T03:10:15;101056.00;;;12.16;100.00
50434;BME280;36361;38.954;-9.002;2023-03-15T03:11:23;101060.44;;;12.10;100.00
50434;BME280;36361;38.954;-9.002;2023-03-15T03:12:25;101058.78;;;11.96;100.00
50434;BME280;36361;38.954;-9.002;2023-03-15T03:13:26;101056.72;;;11.98;100.00
50434;BME280;36361;38.954;-9.002;2023-03-15T03:14:27;101050.34;;;12.11;100.00
50434;BME280;36361;38.954;-9.002;2023-03-15T03:15:28;101061.19;;;12.24;100.00
50434;BME280;36361;38.954;-9.002;2023-03-15T03:16:29;101054.41;;;12.40;100.00
50434;BME280;36361;38.954;-9.002;2023-03-15T03:17:32;101053.66;;;12.26;100.00
50434;BME280;36361;38.954;-9.002;2023-03-15T03:18:38;101044.06;;;12.10;100.00
50434;BME280;36361;38.954;-9.002;2023-03-15T03:19:39;101054.00;;;11.98;100.00
50434;BME280;36361;38.954;-9.002;2023-03-15T03:20:40;101041.25;;;12.30;100.00
50434;BME280;36361;38.954;-9.002;2023-03-15T03:21:40;101050.59;;;12.47;100.00
50434;BME280;36361;38.954;-9.002;2023-03-15T03:22:45;101048.13;;;12.39;100.00
50434;BME280;36361;38.954;-9.002;2023-03-15T03:23:46;101044.41;;;12.27;100.00
50434;BME280;36361;38.954;-9.002;2023-03-15T03:24:46;101051.81;;;12.51;100.00
50434;BME280;36361;38.954;-9.002;2023-03-15T03:25:50;101038.47;;;12.37;100.00
50434;BME280;36361;38.954;-9.002;2023-03-15T03:26:51;101037.34;;;12.51;100.00
50434;BME280;36361;38.954;-9.002;2023-03-15T03:27:57;101036.66;;;12.62;100.00
50434;BME280;36361;38.954;-9.002;2023-03-15T03:29:01;101038.94;;;12.65;100.00
50434;BME280;36361;38.954;-9.002;2023-03-15T03:30:07;101033.75;;;12.57;100.00
50434;BME280;36361;38.954;-9.002;2023-03-15T03:31:20;101035.03;;;12.55;100.00
50434;BME280;36361;38.954;-9.002;2023-03-15T03:32:23;101028.66;;;12.29;100.00
50434;BME280;36361;38.954;-9.002;2023-03-15T03:33:26;101026.03;;;12.09;100.00
50434;BME280;36361;38.954;-9.002;2023-03-15T03:34:27;101033.84;;;11.99;100.00
50434;BME280;36361;38.954;-9.002;2023-03-15T03:35:27;101036.38;;;11.87;100.00
50434;BME280;36361;38.954;-9.002;2023-03-15T03:36:29;101032.19;;;11.85;100.00
50434;BME280;36361;38.954;-9.002;2023-03-15T03:37:30;101026.13;;;11.83;100.00
50434;BME280;36361;38.954;-9.002;2023-03-15T03:38:34;101026.34;;;11.75;100.00
50434;BME280;36361;38.954;-9.002;2023-03-15T03:39:35;101016.50;;;11.67;100.00
50434;BME280;36361;38.954;-9.002;2023-03-15T03:40:39;101019.88;;;11.62;100.00
50434;BME280;36361;38.954;-9.002;2023-03-15T03:41:41;101018.16;;;11.75;100.00
50434;BME280;36361;38.954;-9.002;2023-03-15T03:42:45;101009.53;;;11.78;100.00
50434;BME280;36361;38.954;-9.002;2023-03-15T03:43:46;101012.75;;;11.61;100.00
50434;BME280;36361;38.954;-9.002;2023-03-15T03:44:49;101007.91;;;11.63;100.00
50434;BME280;36361;38.954;-9.002;2023-03-15T03:45:51;101005.22;;;11.50;100.00
50434;BME280;36361;38.954;-9.002;2023-03-15T03:46:52;101005.56;;;11.74;100.00
50434;BME280;36361;38.954;-9.002;2023-03-15T03:47:55;101000.72;;;11.76;100.00
50434;BME280;36361;38.954;-9.002;2023-03-15T03:48:59;100997.94;;;12.02;100.00
50434;BME280;36361;38.954;-9.002;2023-03-15T03:50:03;100997.69;;;12.10;100.00
50434;BME280;36361;38.954;-9.002;2023-03-15T03:51:04;100995.44;;;11.94;100.00
50434;BME280;36361;38.954;-9.002;2023-03-15T03:52:05;100994.00;;;12.30;100.00
50434;BME280;36361;38.954;-9.002;2023-03-15T03:53:07;101003.66;;;12.32;100.00
50434;BME280;36361;38.954;-9.002;2023-03-15T03:54:08;100997.53;;;12.37;100.00
50434;BME280;36361;38.954;-9.002;2023-03-15T03:55:10;100999.09;;;12.19;100.00
50434;BME280;36361;38.954;-9.002;2023-03-15T03:56:16;100999.59;;;12.03;100.00
50434;BME280;36361;38.954;-9.002;2023-03-15T03:57:17;100999.59;;;12.10;100.00
50434;BME280;36361;38.954;-9.002;2023-03-15T03:58:19;100997.25;;;12.13;100.00
50434;BME280;36361;38.954;-9.002;2023-03-15T03:59:24;100997.09;;;12.02;100.00
50434;BME280;36361;38.954;-9.002;2023-03-15T04:00:33;100999.13;;;12.13;100.00
50434;BME280;36361;38.954;-9.002;2023-03-15T04:01:34;100991.16;;;12.11;100.00
50434;BME280;36361;38.954;-9.002;2023-03-15T04:02:35;100998.31;;;12.12;100.00
50434;BME280;36361;38.954;-9.002;2023-03-15T04:03:39;100996.59;;;12.18;100.00
50434;BME280;36361;38.954;-9.002;2023-03-15T04:04:44;100998.38;;;11.99;100.00
50434;BME280;36361;38.954;-9.002;2023-03-15T04:05:54;101003.69;;;11.67;100.00
50434;BME280;36361;38.954;-9.002;2023-03-15T04:06:57;100998.84;;;11.89;100.00
50434;BME280;36361;38.954;-9.002;2023-03-15T04:08:03;100995.06;;;11.84;100.00
50434;BME280;36361;38.954;-9.002;2023-03-15T04:09:14;100997.56;;;11.79;100.00
50434;BME280;36361;38.954;-9.002;2023-03-15T04:10:17;101002.84;;;11.74;100.00
50434;BME280;36361;38.954;-9.002;2023-03-15T04:11:21;101001.63;;;11.56;100.00
50434;BME280;36361;38.954;-9.002;2023-03-15T04:12:30;101003.53;;;11.49;100.00
50434;BME280;36361;38.954;-9.002;2023-03-15T04:13:31;100999.13;;;11.48;100.00
50434;BME280;36361;38.954;-9.002;2023-03-15T04:14:34;100999.75;;;11.50;100.00
50434;BME280;36361;38.954;-9.002;2023-03-15T04:15:35;101009.41;;;11.46;100.00
50434;BME280;36361;38.954;-9.002;2023-03-15T04:16:36;101002.91;;;11.54;100.00
50434;BME280;36361;38.954;-9.002;2023-03-15T04:17:40;101006.47;;;11.48;100.00
50434;BME280;36361;38.954;-9.002;2023-03-15T04:18:40;100999.34;;;11.47;100.00
50434;BME280;36361;38.954;-9.002;2023-03-15T04:19:41;101002.31;;;11.32;100.00
50434;BME280;36361;38.954;-9.002;2023-03-15T04:20:47;101002.31;;;11.32;100.00
50434;BME280;36361;38.954;-9.002;2023-03-15T04:21:50;101005.03;;;11.32;100.00
50434;BME280;36361;38.954;-9.002;2023-03-15T04:23:01;101006.09;;;11.31;100.00
50434;BME280;36361;38.954;-9.002;2023-03-15T04:24:14;100998.97;;;11.30;100.00
50434;BME280;36361;38.954;-9.002;2023-03-15T04:25:35;100997.34;;;11.16;100.00
50434;BME280;36361;38.954;-9.002;2023-03-15T04:26:47;100996.50;;;11.08;100.00
50434;BME280;36361;38.954;-9.002;2023-03-15T04:27:57;100995.63;;;11.15;100.00
50434;BME280;36361;38.954;-9.002;2023-03-15T04:29:16;100994.00;;;11.07;100.00
50434;BME280;36361;38.954;-9.002;2023-03-15T04:30:31;101006.31;;;10.96;100.00
50434;BME280;36361;38.954;-9.002;2023-03-15T04:31:49;101004.03;;;10.93;100.00
50434;BME280;36361;38.954;-9.002;2023-03-15T04:33:25;100997.75;;;10.99;100.00
50434;BME280;36361;38.954;-9.002;2023-03-15T04:34:34;100990.63;;;10.98;100.00
50434;BME280;36361;38.954;-9.002;2023-03-15T04:35:48;100996.28;;;11.10;100.00
50434;BME280;36361;38.954;-9.002;2023-03-15T04:37:10;100996.50;;;11.08;100.00
50434;BME280;36361;38.954;-9.002;2023-03-15T04:38:33;100997.13;;;11.10;100.00
50434;BME280;36361;38.954;-9.002;2023-03-15T04:39:57;101005.69;;;11.21;100.00
50434;BME280;36361;38.954;-9.002;2023-03-15T04:41:24;101002.34;;;11.19;100.00
50434;BME280;36361;38.954;-9.002;2023-03-15T04:42:45;100999.84;;;10.97;100.00
50434;BME280;36361;38.954;-9.002;2023-03-15T04:44:10;100997.75;;;10.99;100.00
50434;BME280;36361;38.954;-9.002;2023-03-15T04:45:39;100996.09;;;10.98;100.00
50434;BME280;36361;38.954;-9.002;2023-03-15T04:47:05;100987.72;;;10.80;100.00
50434;BME280;36361;38.954;-9.002;2023-03-15T04:48:24;100995.66;;;10.88;100.00
50434;BME280;36361;38.954;-9.002;2023-03-15T04:49:53;100982.47;;;10.98;100.00
50434;BME280;36361;38.954;-9.002;2023-03-15T04:51:12;100988.13;;;10.83;100.00
50434;BME280;36361;38.954;-9.002;2023-03-15T04:52:23;100985.41;;;10.90;100.00
50434;BME280;36361;38.954;-9.002;2023-03-15T04:53:59;100992.72;;;10.76;100.00
50434;BME280;36361;38.954;-9.002;2023-03-15T04:55:20;100986.03;;;10.72;100.00
50434;BME280;36361;38.954;-9.002;2023-03-15T04:56:53;100982.25;;;10.67;100.00
50434;BME280;36361;38.954;-9.002;2023-03-15T04:58:03;100973.66;;;10.43;100.00
50434;BME280;36361;38.954;-9.002;2023-03-15T04:59:13;100984.53;;;10.57;100.00
50434;BME280;36361;38.954;-9.002;2023-03-15T05:00:51;100975.97;;;10.66;100.00
50434;BME280;36361;38.954;-9.002;2023-03-15T05:02:10;100976.34;;;10.50;100.00
50434;BME280;36361;38.954;-9.002;2023-03-15T05:03:30;100977.19;;;10.50;100.00
50434;BME280;36361;38.954;-9.002;2023-03-15T05:04:45;100973.19;;;10.33;100.00
50434;BME280;36361;38.954;-9.002;2023-03-15T05:05:55;100977.41;;;10.36;100.00
50434;BME280;36361;38.954;-9.002;2023-03-15T05:07:14;100973.00;;;10.41;100.00
50434;BME280;36361;38.954;-9.002;2023-03-15T05:08:39;100978.47;;;10.54;100.00
50434;BME280;36361;38.954;-9.002;2023-03-15T05:09:58;100979.31;;;10.75;100.00
50434;BME280;36361;38.954;-9.002;2023-03-15T05:11:22;100979.75;;;10.72;100.00
50434;BME280;36361;38.954;-9.002;2023-03-15T05:12:26;100970.50;;;10.60;100.00
50434;BME280;36361;38.954;-9.002;2023-03-15T05:13:30;100975.56;;;10.63;100.00
50434;BME280;36361;38.954;-9.002;2023-03-15T05:15:04;100980.16;;;10.75;100.00
50434;BME280;36361;38.954;-9.002;2023-03-15T05:16:24;100975.75;;;10.68;100.00
50434;BME280;36361;38.954;-9.002;2023-03-15T05:17:34;100973.03;;;10.54;100.00
50434;BME280;36361;38.954;-9.002;2023-03-15T05:19:07;100971.34;;;10.67;100.00
50434;BME280;36361;38.954;-9.002;2023-03-15T05:20:08;100965.91;;;10.67;100.00
50434;BME280;36361;38.954;-9.002;2023-03-15T05:21:27;100966.75;;;10.61;100.00
50434;BME280;36361;38.954;-9.002;2023-03-15T05:22:43;100966.97;;;10.72;100.00
50434;BME280;36361;38.954;-9.002;2023-03-15T05:24:07;100964.25;;;10.66;100.00
50434;BME280;36361;38.954;-9.002;2023-03-15T05:25:49;100962.97;;;10.68;100.00
50434;BME280;36361;38.954;-9.002;2023-03-15T05:27:13;100957.94;;;10.78;100.00
50434;BME280;36361;38.954;-9.002;2023-03-15T05:28:27;100963.38;;;10.59;100.00
50434;BME280;36361;38.954;-9.002;2023-03-15T05:29:51;100958.38;;;10.56;100.00
50434;BME280;36361;38.954;-9.002;2023-03-15T05:31:14;100963.41;;;10.65;100.00
50434;BME280;36361;38.954;-9.002;2023-03-15T05:32:33;100953.97;;;10.68;100.00
50434;BME280;36361;38.954;-9.002;2023-03-15T05:33:54;100957.94;;;10.59;100.00
50434;BME280;36361;38.954;-9.002;2023-03-15T05:35:34;100949.38;;;10.75;100.00
50434;BME280;36361;38.954;-9.002;2023-03-15T05:36:51;100949.59;;;10.80;100.00
50434;BME280;36361;38.954;-9.002;2023-03-15T05:38:23;100948.75;;;10.66;100.00
50434;BME280;36361;38.954;-9.002;2023-03-15T05:39:58;100952.31;;;10.53;100.00
50434;BME280;36361;38.954;-9.002;2023-03-15T05:41:23;100946.25;;;10.65;100.00
50434;BME280;36361;38.954;-9.002;2023-03-15T05:42:59;100948.31;;;10.49;100.00
50434;BME280;36361;38.954;-9.002;2023-03-15T05:44:18;100950.81;;;10.51;100.00
50434;BME280;36361;38.954;-9.002;2023-03-15T05:45:37;100950.00;;;10.37;100.00
50434;BME280;36361;38.954;-9.002;2023-03-15T05:46:38;100949.13;;;10.23;100.00
50434;BME280;36361;38.954;-9.002;2023-03-15T05:48:05;100949.16;;;10.37;100.00
50434;BME280;36361;38.954;-9.002;2023-03-15T05:49:28;100947.88;;;10.33;100.00